sensor_id;sensor_type;location;lat;lon;timestamp;pressure;altitude;pressure_sealevel;temperature;humidity
69909;BME280;57190;47.918;8.112;2022-12-10T00:01:51;89319.34;;;-0.91;83.22
69909;BME280;57190;47.918;8.112;2022-12-10T00:04:18;89320.13;;;-0.91;83.06
69909;BME280;57190;47.918;8.112;2022-12-10T00:06:44;89316.47;;;-0.90;83.56
69909;BME280;57190;47.918;8.112;2022-12-10T00:09:14;89306.81;;;-0.89;83.28
69909;BME280;57190;47.918;8.112;2022-12-10T00:11:40;89311.56;;;-0.86;83.09
69909;BME280;57190;47.918;8.112;2022-12-10T00:14:06;89307.44;;;-0.82;82.90
69909;BME280;57190;47.918;8.112;2022-12-10T00:16:33;89299.03;;;-0.84;83.67
69909;BME280;57190;47.918;8.112;2022-12-10T00:19:02;89289.03;;;-0.87;83.66
69909;BME280;57190;47.918;8.112;2022-12-10T00:21:31;89297.13;;;-0.89;83.01
69909;BME280;57190;47.918;8.112;2022-12-10T00:23:57;89302.59;;;-0.90;83.09
69909;BME280;57190;47.918;8.112;2022-12-10T00:26:32;89304.19;;;-0.89;83.24
69909;BME280;57190;47.918;8.112;2022-12-10T00:29:00;89315.19;;;-0.87;83.36
69909;BME280;57190;47.918;8.112;2022-12-10T00:31:28;89317.03;;;-0.88;82.84
69909;BME280;57190;47.918;8.112;2022-12-10T00:33:56;89319.91;;;-0.89;83.07
69909;BME280;57190;47.918;8.112;2022-12-10T00:36:26;89315.44;;;-0.89;83.37
69909;BME280;57190;47.918;8.112;2022-12-10T00:38:53;89310.22;;;-0.89;83.15
69909;BME280;57190;47.918;8.112;2022-12-10T00:41:18;89322.84;;;-0.86;83.53
69909;BME280;57190;47.918;8.112;2022-12-10T00:43:44;89325.53;;;-0.81;82.97
69909;BME280;57190;47.918;8.112;2022-12-10T00:46:11;89317.66;;;-0.81;82.89
69909;BME280;57190;47.918;8.112;2022-12-10T00:48:37;89321.88;;;-0.80;82.87
69909;BME280;57190;47.918;8.112;2022-12-10T00:53:32;89313.25;;;-0.80;83.23
69909;BME280;57190;47.918;8.112;2022-12-10T00:55:59;89314.41;;;-0.88;83.59
69909;BME280;57190;47.918;8.112;2022-12-10T00:58:29;89322.28;;;-0.88;83.10
69909;BME280;57190;47.918;8.112;2022-12-10T01:01:10;89324.19;;;-0.83;83.67
69909;BME280;57190;47.918;8.112;2022-12-10T01:03:37;89321.31;;;-0.82;83.12
69909;BME280;57190;47.918;8.112;2022-12-10T01:06:20;89325.28;;;-0.79;82.68
69909;BME280;57190;47.918;8.112;2022-12-10T01:08:47;89331.56;;;-0.80;82.96
69909;BME280;57190;47.918;8.112;2022-12-10T01:11:14;89332.34;;;-0.80;82.83
69909;BME280;57190;47.918;8.112;2022-12-10T01:13:41;89320.84;;;-0.78;83.22
69909;BME280;57190;47.918;8.112;2022-12-10T01:16:09;89322.44;;;-0.77;82.69
69909;BME280;57190;47.918;8.112;2022-12-10T01:18:35;89325.78;;;-0.82;82.96
69909;BME280;57190;47.918;8.112;2022-12-10T01:21:06;89328.16;;;-0.81;83.07
69909;BME280;57190;47.918;8.112;2022-12-10T01:23:33;89334.34;;;-0.87;82.57
69909;BME280;57190;47.918;8.112;2022-12-10T01:26:01;89338.13;;;-0.95;82.69
69909;BME280;57190;47.918;8.112;2022-12-10T01:28:29;89343.91;;;-0.92;82.89
69909;BME280;57190;47.918;8.112;2022-12-10T01:30:54;89340.28;;;-0.91;83.46
69909;BME280;57190;47.918;8.112;2022-12-10T01:33:20;89342.31;;;-0.93;83.18
69909;BME280;57190;47.918;8.112;2022-12-10T01:35:45;89341.88;;;-0.90;83.13
69909;BME280;57190;47.918;8.112;2022-12-10T01:38:11;89340.34;;;-0.86;82.77
69909;BME280;57190;47.918;8.112;2022-12-10T01:40:37;89342.19;;;-0.87;82.39
69909;BME280;57190;47.918;8.112;2022-12-10T01:43:03;89334.34;;;-0.87;82.81
69909;BME280;57190;47.918;8.112;2022-12-10T01:45:28;89336.94;;;-0.87;82.75
69909;BME280;57190;47.918;8.112;2022-12-10T01:47:54;89326.22;;;-0.85;82.41
69909;BME280;57190;47.918;8.112;2022-12-10T01:50:20;89333.31;;;-0.86;82.30
69909;BME280;57190;47.918;8.112;2022-12-10T01:52:45;89336.06;;;-0.92;82.96
69909;BME280;57190;47.918;8.112;2022-12-10T01:58:12;89324.09;;;-0.88;82.81
69909;BME280;57190;47.918;8.112;2022-12-10T02:00:43;89329.56;;;-0.90;82.38
69909;BME280;57190;47.918;8.112;2022-12-10T02:03:14;89337.09;;;-0.93;82.65
69909;BME280;57190;47.918;8.112;2022-12-10T02:05:49;89343.28;;;-1.00;82.44
69909;BME280;57190;47.918;8.112;2022-12-10T02:08:46;89339.31;;;-1.02;82.66
69909;BME280;57190;47.918;8.112;2022-12-10T02:11:24;89346.47;;;-0.98;82.37
69909;BME280;57190;47.918;8.112;2022-12-10T02:13:59;89343.84;;;-0.98;82.16
69909;BME280;57190;47.918;8.112;2022-12-10T02:16:34;89345.44;;;-0.97;82.68
69909;BME280;57190;47.918;8.112;2022-12-10T02:21:45;89340.00;;;-1.07;81.90
69909;BME280;57190;47.918;8.112;2022-12-10T02:24:16;89354.91;;;-1.07;82.22
69909;BME280;57190;47.918;8.112;2022-12-10T02:27:13;89352.28;;;-1.07;82.57
69909;BME280;57190;47.918;8.112;2022-12-10T02:29:37;89341.38;;;-1.04;82.17
69909;BME280;57190;47.918;8.112;2022-12-10T02:32:14;89343.41;;;-1.06;82.54
69909;BME280;57190;47.918;8.112;2022-12-10T02:34:54;89339.53;;;-1.04;82.40
69909;BME280;57190;47.918;8.112;2022-12-10T02:37:27;89340.56;;;-1.05;82.04
69909;BME280;57190;47.918;8.112;2022-12-10T02:39:57;89346.03;;;-1.06;81.95
69909;BME280;57190;47.918;8.112;2022-12-10T02:42:24;89345.72;;;-1.10;82.31
69909;BME280;57190;47.918;8.112;2022-12-10T02:44:52;89336.59;;;-1.07;82.59
69909;BME280;57190;47.918;8.112;2022-12-10T02:47:19;89322.59;;;-1.01;81.93
69909;BME280;57190;47.918;8.112;2022-12-10T02:49:47;89332.00;;;-1.00;82.02
69909;BME280;57190;47.918;8.112;2022-12-10T02:52:15;89338.50;;;-1.03;82.35
69909;BME280;57190;47.918;8.112;2022-12-10T02:54:45;89341.13;;;-1.03;82.44
69909;BME280;57190;47.918;8.112;2022-12-10T02:57:36;89344.31;;;-1.01;82.31
69909;BME280;57190;47.918;8.112;2022-12-10T03:05:47;89328.91;;;-0.97;82.69
69909;BME280;57190;47.918;8.112;2022-12-10T03:08:21;89333.91;;;-0.96;82.42
69909;BME280;57190;47.918;8.112;2022-12-10T03:13:15;89346.13;;;-1.01;81.81
69909;BME280;57190;47.918;8.112;2022-12-10T03:15:42;89350.00;;;-1.04;81.82
69909;BME280;57190;47.918;8.112;2022-12-10T03:18:10;89354.91;;;-1.07;81.28
69909;BME280;57190;47.918;8.112;2022-12-10T03:20:40;89357.00;;;-1.09;81.25
69909;BME280;57190;47.918;8.112;2022-12-10T03:23:10;89350.84;;;-1.15;81.77
69909;BME280;57190;47.918;8.112;2022-12-10T03:25:37;89353.94;;;-1.18;81.61
69909;BME280;57190;47.918;8.112;2022-12-10T03:28:05;89353.59;;;-1.22;81.71
69909;BME280;57190;47.918;8.112;2022-12-10T03:30:32;89350.53;;;-1.19;80.78
69909;BME280;57190;47.918;8.112;2022-12-10T03:32:59;89348.13;;;-1.20;81.00
69909;BME280;57190;47.918;8.112;2022-12-10T03:35:25;89348.63;;;-1.23;81.27
69909;BME280;57190;47.918;8.112;2022-12-10T03:37:51;89352.13;;;-1.18;81.65
69909;BME280;57190;47.918;8.112;2022-12-10T03:40:20;89353.16;;;-1.19;81.12
69909;BME280;57190;47.918;8.112;2022-12-10T03:42:47;89345.31;;;-1.19;81.01
69909;BME280;57190;47.918;8.112;2022-12-10T03:45:12;89341.66;;;-1.18;81.39
69909;BME280;57190;47.918;8.112;2022-12-10T03:47:39;89343.22;;;-1.17;81.69
69909;BME280;57190;47.918;8.112;2022-12-10T03:50:05;89339.81;;;-1.17;81.23
69909;BME280;57190;47.918;8.112;2022-12-10T03:52:31;89339.38;;;-1.14;81.51
69909;BME280;57190;47.918;8.112;2022-12-10T03:54:57;89343.78;;;-1.15;80.97
69909;BME280;57190;47.918;8.112;2022-12-10T03:57:23;89341.41;;;-1.16;80.83
69909;BME280;57190;47.918;8.112;2022-12-10T03:59:48;89339.38;;;-1.14;81.02
69909;BME280;57190;47.918;8.112;2022-12-10T04:02:13;89329.81;;;-1.20;81.36
69909;BME280;57190;47.918;8.112;2022-12-10T04:04:39;89334.03;;;-1.19;81.05
69909;BME280;57190;47.918;8.112;2022-12-10T04:07:04;89335.75;;;-1.25;81.54
69909;BME280;57190;47.918;8.112;2022-12-10T04:09:30;89329.16;;;-1.28;81.42
69909;BME280;57190;47.918;8.112;2022-12-10T04:11:59;89331.00;;;-1.28;81.50
69909;BME280;57190;47.918;8.112;2022-12-10T04:14:25;89333.50;;;-1.33;81.89
69909;BME280;57190;47.918;8.112;2022-12-10T04:17:09;89340.91;;;-1.30;81.91
69909;BME280;57190;47.918;8.112;2022-12-10T04:19:35;89346.69;;;-1.28;81.49
69909;BME280;57190;47.918;8.112;2022-12-10T04:22:00;89332.72;;;-1.34;81.65
69909;BME280;57190;47.918;8.112;2022-12-10T04:24:45;89333.44;;;-1.38;81.51
69909;BME280;57190;47.918;8.112;2022-12-10T04:27:32;89335.38;;;-1.46;81.38
69909;BME280;57190;47.918;8.112;2022-12-10T04:29:58;89337.75;;;-1.44;81.67
69909;BME280;57190;47.918;8.112;2022-12-10T04:32:26;89340.13;;;-1.43;81.63
69909;BME280;57190;47.918;8.112;2022-12-10T04:34:52;89332.97;;;-1.35;81.48
69909;BME280;57190;47.918;8.112;2022-12-10T04:37:18;89327.75;;;-1.35;81.09
69909;BME280;57190;47.918;8.112;2022-12-10T04:39:44;89331.28;;;-1.42;81.69
69909;BME280;57190;47.918;8.112;2022-12-10T04:42:10;89326.53;;;-1.45;81.82
69909;BME280;57190;47.918;8.112;2022-12-10T04:44:36;89333.88;;;-1.42;82.04
69909;BME280;57190;47.918;8.112;2022-12-10T04:47:03;89319.56;;;-1.39;81.82
69909;BME280;57190;47.918;8.112;2022-12-10T04:49:29;89322.19;;;-1.39;81.77
69909;BME280;57190;47.918;8.112;2022-12-10T04:51:54;89335.47;;;-1.40;81.70
69909;BME280;57190;47.918;8.112;2022-12-10T04:54:20;89334.78;;;-1.36;81.32
69909;BME280;57190;47.918;8.112;2022-12-10T04:56:46;89342.06;;;-1.38;81.56
69909;BME280;57190;47.918;8.112;2022-12-10T04:59:12;89327.16;;;-1.37;81.65
69909;BME280;57190;47.918;8.112;2022-12-10T05:01:38;89326.38;;;-1.38;81.36
69909;BME280;57190;47.918;8.112;2022-12-10T05:04:05;89326.69;;;-1.34;81.76
69909;BME280;57190;47.918;8.112;2022-12-10T05:06:32;89334.13;;;-1.43;81.23
69909;BME280;57190;47.918;8.112;2022-12-10T05:08:57;89327.22;;;-1.49;81.53
69909;BME280;57190;47.918;8.112;2022-12-10T05:11:25;89329.03;;;-1.50;81.17
69909;BME280;57190;47.918;8.112;2022-12-10T05:13:52;89335.84;;;-1.49;81.17
69909;BME280;57190;47.918;8.112;2022-12-10T05:16:20;89337.34;;;-1.53;81.39
69909;BME280;57190;47.918;8.112;2022-12-10T05:18:46;89335.28;;;-1.51;81.66
69909;BME280;57190;47.918;8.112;2022-12-10T05:21:14;89338.25;;;-1.47;81.68
69909;BME280;57190;47.918;8.112;2022-12-10T05:23:42;89341.41;;;-1.45;81.32
69909;BME280;57190;47.918;8.112;2022-12-10T05:26:11;89344.00;;;-1.45;80.93
69909;BME280;57190;47.918;8.112;2022-12-10T05:28:54;89344.00;;;-1.45;81.35
69909;BME280;57190;47.918;8.112;2022-12-10T05:31:23;89344.25;;;-1.47;81.12
69909;BME280;57190;47.918;8.112;2022-12-10T05:33:49;89348.78;;;-1.42;81.15
69909;BME280;57190;47.918;8.112;2022-12-10T05:36:17;89348.72;;;-1.47;81.17
69909;BME280;57190;47.918;8.112;2022-12-10T05:38:44;89354.72;;;-1.47;81.69
69909;BME280;57190;47.918;8.112;2022-12-10T05:41:13;89353.00;;;-1.41;81.15
69909;BME280;57190;47.918;8.112;2022-12-10T05:43:39;89340.38;;;-1.44;81.25
69909;BME280;57190;47.918;8.112;2022-12-10T05:46:08;89347.97;;;-1.43;80.85
69909;BME280;57190;47.918;8.112;2022-12-10T05:48:34;89340.63;;;-1.46;80.92
69909;BME280;57190;47.918;8.112;2022-12-10T05:51:05;89347.81;;;-1.53;81.39
69909;BME280;57190;47.918;8.112;2022-12-10T05:53:31;89354.63;;;-1.52;81.02
69909;BME280;57190;47.918;8.112;2022-12-10T05:56:01;89369.06;;;-1.49;81.15
69909;BME280;57190;47.918;8.112;2022-12-10T05:58:28;89370.66;;;-1.48;81.24
69909;BME280;57190;47.918;8.112;2022-12-10T06:00:55;89362.47;;;-1.52;80.51
69909;BME280;57190;47.918;8.112;2022-12-10T06:03:20;89360.41;;;-1.50;80.49
69909;BME280;57190;47.918;8.112;2022-12-10T06:05:46;89362.69;;;-1.53;80.57
69909;BME280;57190;47.918;8.112;2022-12-10T06:08:12;89375.69;;;-1.59;80.71
69909;BME280;57190;47.918;8.112;2022-12-10T06:10:37;89383.06;;;-1.55;80.69
69909;BME280;57190;47.918;8.112;2022-12-10T06:13:03;89385.69;;;-1.55;80.83
69909;BME280;57190;47.918;8.112;2022-12-10T06:15:30;89386.47;;;-1.55;80.97
69909;BME280;57190;47.918;8.112;2022-12-10T06:17:56;89385.22;;;-1.52;80.48
69909;BME280;57190;47.918;8.112;2022-12-10T06:20:23;89390.56;;;-1.59;80.71
69909;BME280;57190;47.918;8.112;2022-12-10T06:22:49;89397.38;;;-1.58;81.14
69909;BME280;57190;47.918;8.112;2022-12-10T06:25:14;89387.81;;;-1.52;80.48
69909;BME280;57190;47.918;8.112;2022-12-10T06:27:40;89397.38;;;-1.58;80.74
69909;BME280;57190;47.918;8.112;2022-12-10T06:30:06;89398.97;;;-1.57;81.18
69909;BME280;57190;47.918;8.112;2022-12-10T06:32:32;89391.38;;;-1.59;80.82
69909;BME280;57190;47.918;8.112;2022-12-10T06:34:57;89392.97;;;-1.58;80.78
69909;BME280;57190;47.918;8.112;2022-12-10T06:37:23;89387.72;;;-1.58;79.99
69909;BME280;57190;47.918;8.112;2022-12-10T06:39:50;89393.88;;;-1.64;80.59
69909;BME280;57190;47.918;8.112;2022-12-10T06:42:16;89378.53;;;-1.60;80.86
69909;BME280;57190;47.918;8.112;2022-12-10T06:44:42;89384.53;;;-1.60;80.28
69909;BME280;57190;47.918;8.112;2022-12-10T06:47:07;89389.88;;;-1.66;80.04
69909;BME280;57190;47.918;8.112;2022-12-10T06:49:33;89409.44;;;-1.69;80.51
69909;BME280;57190;47.918;8.112;2022-12-10T06:51:58;89407.53;;;-1.74;80.50
69909;BME280;57190;47.918;8.112;2022-12-10T06:54:24;89404.47;;;-1.70;80.20
69909;BME280;57190;47.918;8.112;2022-12-10T06:56:49;89407.28;;;-1.72;79.90
69909;BME280;57190;47.918;8.112;2022-12-10T06:59:15;89410.25;;;-1.80;80.29
69909;BME280;57190;47.918;8.112;2022-12-10T07:01:40;89418.00;;;-1.85;80.02
69909;BME280;57190;47.918;8.112;2022-12-10T07:04:06;89424.03;;;-1.85;80.23
69909;BME280;57190;47.918;8.112;2022-12-10T07:06:32;89428.34;;;-1.91;80.02
69909;BME280;57190;47.918;8.112;2022-12-10T07:08:57;89432.00;;;-1.92;80.08
69909;BME280;57190;47.918;8.112;2022-12-10T07:11:24;89436.53;;;-1.87;80.44
69909;BME280;57190;47.918;8.112;2022-12-10T07:13:51;89437.44;;;-1.81;80.12
69909;BME280;57190;47.918;8.112;2022-12-10T07:16:22;89434.34;;;-1.78;79.76
69909;BME280;57190;47.918;8.112;2022-12-10T07:18:49;89428.00;;;-1.82;79.65
69909;BME280;57190;47.918;8.112;2022-12-10T07:21:22;89435.72;;;-1.87;79.62
69909;BME280;57190;47.918;8.112;2022-12-10T07:23:50;89430.16;;;-1.91;79.29
69909;BME280;57190;47.918;8.112;2022-12-10T07:26:15;89443.69;;;-1.94;79.30
69909;BME280;57190;47.918;8.112;2022-12-10T07:28:41;89450.72;;;-1.95;79.32
69909;BME280;57190;47.918;8.112;2022-12-10T07:31:08;89442.88;;;-1.95;78.88
69909;BME280;57190;47.918;8.112;2022-12-10T07:33:35;89439.69;;;-1.97;78.92
69909;BME280;57190;47.918;8.112;2022-12-10T07:36:10;89449.94;;;-1.95;79.03
69909;BME280;57190;47.918;8.112;2022-12-10T07:38:36;89458.81;;;-1.96;78.89
69909;BME280;57190;47.918;8.112;2022-12-10T07:41:07;89463.44;;;-1.98;79.37
69909;BME280;57190;47.918;8.112;2022-12-10T07:43:38;89458.13;;;-1.92;79.40
69909;BME280;57190;47.918;8.112;2022-12-10T07:46:19;89466.75;;;-1.91;79.02
69909;BME280;57190;47.918;8.112;2022-12-10T07:48:47;89461.31;;;-1.90;78.73
69909;BME280;57190;47.918;8.112;2022-12-10T07:51:13;89465.16;;;-1.92;79.02
69909;BME280;57190;47.918;8.112;2022-12-10T07:53:39;89473.00;;;-1.92;78.66
69909;BME280;57190;47.918;8.112;2022-12-10T07:56:05;89467.44;;;-1.96;78.54
69909;BME280;57190;47.918;8.112;2022-12-10T07:58:32;89481.06;;;-1.94;78.88
69909;BME280;57190;47.918;8.112;2022-12-10T08:00:58;89483.44;;;-1.92;78.81
69909;BME280;57190;47.918;8.112;2022-12-10T08:03:23;89477.00;;;-1.90;79.04
69909;BME280;57190;47.918;8.112;2022-12-10T08:06:00;89491.41;;;-1.87;78.94
69909;BME280;57190;47.918;8.112;2022-12-10T08:08:26;89487.78;;;-1.86;78.53
69909;BME280;57190;47.918;8.112;2022-12-10T08:10:51;89485.38;;;-1.87;78.53
69909;BME280;57190;47.918;8.112;2022-12-10T08:13:17;89494.47;;;-1.90;78.43
69909;BME280;57190;47.918;8.112;2022-12-10T08:15:42;89499.84;;;-1.85;78.61
69909;BME280;57190;47.918;8.112;2022-12-10T08:18:07;89483.25;;;-1.79;78.21
69909;BME280;57190;47.918;8.112;2022-12-10T08:20:33;89480.84;;;-1.80;78.14
69909;BME280;57190;47.918;8.112;2022-12-10T08:22:58;89482.91;;;-1.82;77.55
69909;BME280;57190;47.918;8.112;2022-12-10T08:25:24;89480.38;;;-1.89;77.58
69909;BME280;57190;47.918;8.112;2022-12-10T08:27:50;89481.75;;;-1.86;77.20
69909;BME280;57190;47.918;8.112;2022-12-10T08:30:15;89485.03;;;-1.79;77.24
69909;BME280;57190;47.918;8.112;2022-12-10T08:32:41;89483.81;;;-1.77;77.35
69909;BME280;57190;47.918;8.112;2022-12-10T08:35:06;89492.22;;;-1.75;77.46
69909;BME280;57190;47.918;8.112;2022-12-10T08:37:32;89499.72;;;-1.66;76.98
69909;BME280;57190;47.918;8.112;2022-12-10T08:39:57;89503.34;;;-1.67;77.10
69909;BME280;57190;47.918;8.112;2022-12-10T08:42:23;89498.69;;;-1.65;77.11
69909;BME280;57190;47.918;8.112;2022-12-10T08:44:49;89508.72;;;-1.62;77.09
69909;BME280;57190;47.918;8.112;2022-12-10T08:47:16;89505.28;;;-1.63;76.90
69909;BME280;57190;47.918;8.112;2022-12-10T08:49:42;89508.38;;;-1.66;76.56
69909;BME280;57190;47.918;8.112;2022-12-10T08:52:07;89504.72;;;-1.65;76.78
69909;BME280;57190;47.918;8.112;2022-12-10T08:54:33;89508.94;;;-1.64;76.02
69909;BME280;57190;47.918;8.112;2022-12-10T08:56:58;89513.34;;;-1.64;76.40
69909;BME280;57190;47.918;8.112;2022-12-10T08:59:24;89517.34;;;-1.74;76.83
69909;BME280;57190;47.918;8.112;2022-12-10T09:01:51;89513.69;;;-1.72;77.08
69909;BME280;57190;47.918;8.112;2022-12-10T09:04:17;89520.09;;;-1.68;76.73
69909;BME280;57190;47.918;8.112;2022-12-10T09:06:42;89528.13;;;-1.70;77.64
69909;BME280;57190;47.918;8.112;2022-12-10T09:09:07;89531.66;;;-1.64;76.88
69909;BME280;57190;47.918;8.112;2022-12-10T09:11:34;89529.53;;;-1.55;76.61
69909;BME280;57190;47.918;8.112;2022-12-10T09:14:00;89531.09;;;-1.54;76.39
69909;BME280;57190;47.918;8.112;2022-12-10T09:16:30;89535.78;;;-1.56;76.34
69909;BME280;57190;47.918;8.112;2022-12-10T09:18:56;89528.81;;;-1.51;76.45
69909;BME280;57190;47.918;8.112;2022-12-10T09:21:21;89526.56;;;-1.47;76.40
69909;BME280;57190;47.918;8.112;2022-12-10T09:23:47;89536.13;;;-1.53;76.38
69909;BME280;57190;47.918;8.112;2022-12-10T09:26:14;89539.28;;;-1.51;76.86
69909;BME280;57190;47.918;8.112;2022-12-10T09:28:40;89541.44;;;-1.48;76.59
69909;BME280;57190;47.918;8.112;2022-12-10T09:31:06;89539.84;;;-1.37;76.63
69909;BME280;57190;47.918;8.112;2022-12-10T09:33:32;89539.72;;;-1.30;76.37
69909;BME280;57190;47.918;8.112;2022-12-10T09:35:58;89545.06;;;-1.25;75.87
69909;BME280;57190;47.918;8.112;2022-12-10T09:38:24;89548.72;;;-1.14;75.84
69909;BME280;57190;47.918;8.112;2022-12-10T09:40:51;89549.84;;;-1.10;75.68
69909;BME280;57190;47.918;8.112;2022-12-10T09:43:32;89557.00;;;-1.05;75.21
69909;BME280;57190;47.918;8.112;2022-12-10T09:46:23;89549.94;;;-1.05;75.22
69909;BME280;57190;47.918;8.112;2022-12-10T09:51:58;89538.09;;;-0.96;74.64
69909;BME280;57190;47.918;8.112;2022-12-10T09:54:29;89544.00;;;-0.88;74.26
69909;BME280;57190;47.918;8.112;2022-12-10T09:56:57;89540.69;;;-0.84;74.10
69909;BME280;57190;47.918;8.112;2022-12-10T09:59:29;89533.47;;;-0.65;73.64
69909;BME280;57190;47.918;8.112;2022-12-10T10:02:21;89540.16;;;-0.57;73.69
69909;BME280;57190;47.918;8.112;2022-12-10T10:04:49;89530.31;;;-0.50;72.96
69909;BME280;57190;47.918;8.112;2022-12-10T10:07:24;89531.59;;;-0.52;72.72
69909;BME280;57190;47.918;8.112;2022-12-10T10:09:56;89533.50;;;-0.48;72.70
69909;BME280;57190;47.918;8.112;2022-12-10T10:12:22;89533.38;;;-0.41;72.67
69909;BME280;57190;47.918;8.112;2022-12-10T10:14:48;89535.34;;;-0.48;72.60
69909;BME280;57190;47.918;8.112;2022-12-10T10:17:26;89544.03;;;-0.59;72.57
69909;BME280;57190;47.918;8.112;2022-12-10T10:19:53;89539.88;;;-0.72;73.49
69909;BME280;57190;47.918;8.112;2022-12-10T10:22:18;89535.97;;;-0.70;72.90
69909;BME280;57190;47.918;8.112;2022-12-10T10:24:45;89547.97;;;-0.74;73.90
69909;BME280;57190;47.918;8.112;2022-12-10T10:27:16;89548.00;;;-0.86;74.25
69909;BME280;57190;47.918;8.112;2022-12-10T10:29:44;89559.38;;;-1.04;74.97
69909;BME280;57190;47.918;8.112;2022-12-10T10:32:16;89561.69;;;-1.19;75.51
69909;BME280;57190;47.918;8.112;2022-12-10T10:34:44;89557.81;;;-1.29;75.53
69909;BME280;57190;47.918;8.112;2022-12-10T10:37:25;89551.69;;;-1.22;76.03
69909;BME280;57190;47.918;8.112;2022-12-10T10:39:54;89551.91;;;-1.24;75.80
69909;BME280;57190;47.918;8.112;2022-12-10T10:42:41;89563.19;;;-1.35;76.21
69909;BME280;57190;47.918;8.112;2022-12-10T10:45:38;89567.84;;;-1.49;76.63
69909;BME280;57190;47.918;8.112;2022-12-10T10:50:40;89563.53;;;-1.55;77.13
69909;BME280;57190;47.918;8.112;2022-12-10T10:55:50;89566.69;;;-1.53;76.99
69909;BME280;57190;47.918;8.112;2022-12-10T10:58:19;89569.44;;;-1.48;76.98
69909;BME280;57190;47.918;8.112;2022-12-10T11:01:00;89560.00;;;-1.49;76.73
69909;BME280;57190;47.918;8.112;2022-12-10T11:03:28;89549.75;;;-1.39;76.54
69909;BME280;57190;47.918;8.112;2022-12-10T11:05:56;89559.75;;;-1.36;76.15
69909;BME280;57190;47.918;8.112;2022-12-10T11:08:25;89564.28;;;-1.19;75.53
69909;BME280;57190;47.918;8.112;2022-12-10T11:10:56;89565.44;;;-1.15;75.38
69909;BME280;57190;47.918;8.112;2022-12-10T11:13:25;89570.69;;;-1.15;75.53
69909;BME280;57190;47.918;8.112;2022-12-10T11:16:09;89568.94;;;-1.21;75.38
69909;BME280;57190;47.918;8.112;2022-12-10T11:18:38;89576.59;;;-1.20;76.08
69909;BME280;57190;47.918;8.112;2022-12-10T11:21:17;89577.50;;;-1.14;74.92
69909;BME280;57190;47.918;8.112;2022-12-10T11:23:55;89581.25;;;-1.22;75.17
69909;BME280;57190;47.918;8.112;2022-12-10T11:30:17;89580.25;;;-1.33;74.79
69909;BME280;57190;47.918;8.112;2022-12-10T11:32:53;89584.09;;;-1.35;75.11
69909;BME280;57190;47.918;8.112;2022-12-10T11:41:09;89580.09;;;-1.38;75.24
69909;BME280;57190;47.918;8.112;2022-12-10T11:43:46;89585.81;;;-1.41;75.57
69909;BME280;57190;47.918;8.112;2022-12-10T11:46:46;89592.28;;;-1.32;74.82
69909;BME280;57190;47.918;8.112;2022-12-10T11:57:43;89593.06;;;-1.31;74.74
69909;BME280;57190;47.918;8.112;2022-12-10T12:00:23;89598.41;;;-1.38;74.06
69909;BME280;57190;47.918;8.112;2022-12-10T12:03:23;89591.47;;;-1.32;74.03
69909;BME280;57190;47.918;8.112;2022-12-10T12:14:00;89596.13;;;-1.34;73.74
69909;BME280;57190;47.918;8.112;2022-12-10T12:16:33;89596.94;;;-1.34;73.50
69909;BME280;57190;47.918;8.112;2022-12-10T12:19:11;89601.28;;;-1.39;74.09
69909;BME280;57190;47.918;8.112;2022-12-10T12:21:40;89609.00;;;-1.45;74.45
69909;BME280;57190;47.918;8.112;2022-12-10T12:24:16;89602.75;;;-1.44;74.25
69909;BME280;57190;47.918;8.112;2022-12-10T12:27:07;89615.84;;;-1.44;74.33
69909;BME280;57190;47.918;8.112;2022-12-10T12:29:42;89612.75;;;-1.52;74.39
69909;BME280;57190;47.918;8.112;2022-12-10T12:32:20;89614.09;;;-1.50;74.61
69909;BME280;57190;47.918;8.112;2022-12-10T12:34:51;89616.59;;;-1.55;74.83
69909;BME280;57190;47.918;8.112;2022-12-10T12:37:21;89616.16;;;-1.64;75.13
69909;BME280;57190;47.918;8.112;2022-12-10T12:40:10;89616.25;;;-1.59;75.15
69909;BME280;57190;47.918;8.112;2022-12-10T12:42:56;89619.78;;;-1.65;74.91
69909;BME280;57190;47.918;8.112;2022-12-10T12:46:02;89619.47;;;-1.56;74.57
69909;BME280;57190;47.918;8.112;2022-12-10T12:48:51;89627.50;;;-1.58;74.52
69909;BME280;57190;47.918;8.112;2022-12-10T12:51:23;89637.16;;;-1.70;74.63
69909;BME280;57190;47.918;8.112;2022-12-10T12:53:52;89638.84;;;-1.76;74.53
69909;BME280;57190;47.918;8.112;2022-12-10T13:04:43;89643.97;;;-1.81;74.69
69909;BME280;57190;47.918;8.112;2022-12-10T13:07:19;89648.16;;;-1.80;74.95
69909;BME280;57190;47.918;8.112;2022-12-10T13:15:27;89649.97;;;-1.81;75.06
69909;BME280;57190;47.918;8.112;2022-12-10T13:18:41;89664.28;;;-1.83;75.21
69909;BME280;57190;47.918;8.112;2022-12-10T13:23:52;89668.19;;;-1.74;75.02
69909;BME280;57190;47.918;8.112;2022-12-10T13:26:27;89658.41;;;-1.79;74.91
69909;BME280;57190;47.918;8.112;2022-12-10T13:28:55;89668.28;;;-1.81;75.08
69909;BME280;57190;47.918;8.112;2022-12-10T13:31:33;89672.72;;;-1.81;74.81
69909;BME280;57190;47.918;8.112;2022-12-10T13:41:43;89676.75;;;-1.97;74.58
69909;BME280;57190;47.918;8.112;2022-12-10T13:44:47;89679.88;;;-2.07;74.91
69909;BME280;57190;47.918;8.112;2022-12-10T13:49:57;89680.31;;;-2.10;75.44
69909;BME280;57190;47.918;8.112;2022-12-10T13:52:37;89686.22;;;-2.15;75.60
69909;BME280;57190;47.918;8.112;2022-12-10T13:55:26;89693.25;;;-2.15;75.78
69909;BME280;57190;47.918;8.112;2022-12-10T14:06:35;89712.28;;;-2.27;76.34
69909;BME280;57190;47.918;8.112;2022-12-10T14:09:12;89714.75;;;-2.32;76.81
69909;BME280;57190;47.918;8.112;2022-12-10T14:11:47;89717.00;;;-2.35;76.83
69909;BME280;57190;47.918;8.112;2022-12-10T14:14:22;89715.41;;;-2.37;76.85
69909;BME280;57190;47.918;8.112;2022-12-10T14:16:49;89725.84;;;-2.37;76.75
69909;BME280;57190;47.918;8.112;2022-12-10T14:19:16;89729.47;;;-2.38;76.86
69909;BME280;57190;47.918;8.112;2022-12-10T14:21:43;89728.31;;;-2.42;76.72
69909;BME280;57190;47.918;8.112;2022-12-10T14:24:34;89732.16;;;-2.44;76.93
69909;BME280;57190;47.918;8.112;2022-12-10T14:27:14;89735.00;;;-2.46;77.26
69909;BME280;57190;47.918;8.112;2022-12-10T14:30:04;89730.19;;;-2.49;77.10
69909;BME280;57190;47.918;8.112;2022-12-10T14:32:34;89738.25;;;-2.50;77.10
69909;BME280;57190;47.918;8.112;2022-12-10T14:35:01;89734.69;;;-2.56;77.79
69909;BME280;57190;47.918;8.112;2022-12-10T14:37:31;89737.72;;;-2.59;77.58
69909;BME280;57190;47.918;8.112;2022-12-10T14:39:59;89743.91;;;-2.54;77.69
69909;BME280;57190;47.918;8.112;2022-12-10T14:42:25;89736.50;;;-2.57;77.57